Time;durP1;ratioP1;P1;durP2;ratioP2;P2;SDS_P1;SDS_P2;PMS_P1;PMS_P2;Temp;Humidity;BMP_temperature;BMP_pressure;BME280_temperature;BME280_humidity;BME280_pressure;Samples;Min_cycle;Max_cycle;Signal;HPM_P1;HPM_P2
2022/12/21 00:00:11;;;;;;;37.90;22.87;;;6.60;99.90;;;;;;5070211;28;20277;-74
2022/12/21 00:02:40;;;;;;;35.37;21.87;;;6.60;99.90;;;;;;5070246;28;20201;-75
2022/12/21 00:05:10;;;;;;;39.57;23.17;;;6.60;99.90;;;;;;5070921;28;20211;-72
2022/12/21 00:07:39;;;;;;;37.47;22.67;;;6.60;99.90;;;;;;5140394;27;20206;-73
2022/12/21 00:10:09;;;;;;;36.13;23.37;;;6.70;99.90;;;;;;5071005;28;20193;-75
2022/12/21 00:12:38;;;;;;;35.20;22.37;;;6.70;99.90;;;;;;5071079;27;20204;-74
2022/12/21 00:15:09;;;;;;;35.63;20.57;;;6.70;99.90;;;;;;5070693;27;20261;-74
2022/12/21 00:17:38;;;;;;;44.77;24.30;;;6.70;99.90;;;;;;5070767;28;20194;-72
2022/12/21 00:20:13;;;;;;;36.20;22.33;;;6.70;99.90;;;;;;5069813;28;20243;-72
2022/12/21 00:22:41;;;;;;;36.40;22.37;;;6.70;99.90;;;;;;5070575;28;20230;-71
2022/12/21 00:25:10;;;;;;;36.27;22.13;;;6.60;99.90;;;;;;5070754;28;20611;-74
2022/12/21 00:27:39;;;;;;;38.67;21.87;;;6.60;99.90;;;;;;5140271;27;20232;-74
2022/12/21 00:30:10;;;;;;;36.87;20.93;;;6.60;99.90;;;;;;5070850;28;20668;-74
2022/12/21 00:32:39;;;;;;;40.27;22.70;;;6.70;99.90;;;;;;5140068;27;20205;-75
2022/12/21 00:35:09;;;;;;;39.00;21.57;;;6.60;99.90;;;;;;5139726;27;20236;-73
2022/12/21 00:37:38;;;;;;;36.63;21.10;;;6.60;99.90;;;;;;5070535;28;20248;-73
2022/12/21 00:40:08;;;;;;;36.80;21.50;;;6.60;99.90;;;;;;5070225;28;20220;-74
2022/12/21 00:42:37;;;;;;;36.93;21.87;;;6.60;99.90;;;;;;5070281;28;20673;-74
2022/12/21 00:45:07;;;;;;;36.87;22.73;;;6.60;99.90;;;;;;5070259;28;20200;-73
2022/12/21 00:47:37;;;;;;;41.00;22.67;;;6.60;99.90;;;;;;5070168;28;20200;-73
2022/12/21 00:50:07;;;;;;;36.90;22.70;;;6.60;99.90;;;;;;5070152;28;20245;-74
2022/12/21 00:52:36;;;;;;;38.23;21.50;;;6.60;99.90;;;;;;5070279;28;20209;-73
2022/12/21 00:55:07;;;;;;;38.00;22.30;;;6.60;99.90;;;;;;5139261;27;20229;-74
2022/12/21 00:57:36;;;;;;;38.57;22.33;;;6.60;99.90;;;;;;5070164;28;20195;-74
2022/12/21 01:00:05;;;;;;;39.37;22.30;;;6.60;99.90;;;;;;5139298;27;20201;-74
2022/12/21 01:02:34;;;;;;;38.03;21.97;;;6.60;99.90;;;;;;5138586;27;20200;-73
2022/12/21 01:05:06;;;;;;;35.50;22.40;;;6.70;99.90;;;;;;5139654;27;20211;-74
2022/12/21 01:07:35;;;;;;;39.70;22.53;;;6.60;99.90;;;;;;5069887;28;20196;-74
2022/12/21 01:10:05;;;;;;;35.93;21.57;;;6.60;99.90;;;;;;5139558;27;20252;-73
2022/12/21 01:12:34;;;;;;;40.87;22.73;;;6.60;99.90;;;;;;5070002;27;20207;-74
2022/12/21 01:15:05;;;;;;;38.00;22.23;;;6.60;99.90;;;;;;5069679;27;20225;-73
2022/12/21 01:17:34;;;;;;;35.67;22.70;;;6.70;99.90;;;;;;5069701;28;20193;-74
2022/12/21 01:20:06;;;;;;;36.77;21.90;;;6.60;99.90;;;;;;5138991;27;20242;-74
2022/12/21 01:22:39;;;;;;;41.40;23.43;;;6.60;99.90;;;;;;5069664;28;20217;-72
2022/12/21 01:25:09;;;;;;;39.60;23.10;;;6.50;99.90;;;;;;5138938;27;20205;-73
2022/12/21 01:27:38;;;;;;;39.90;21.50;;;6.50;99.90;;;;;;5139011;27;20261;-74
2022/12/21 01:30:08;;;;;;;47.77;24.73;;;6.60;99.90;;;;;;5069552;28;20606;-72
2022/12/21 01:32:39;;;;;;;40.67;22.17;;;6.50;99.90;;;;;;5137846;27;20199;-73
2022/12/21 01:35:10;;;;;;;43.37;23.53;;;6.50;99.90;;;;;;5069566;28;20272;-73
2022/12/21 01:37:39;;;;;;;39.13;23.70;;;6.50;99.90;;;;;;5069546;28;20197;-73
2022/12/21 01:40:10;;;;;;;39.77;23.97;;;6.50;99.90;;;;;;5069326;28;20193;-74
2022/12/21 01:42:39;;;;;;;46.23;25.60;;;6.50;99.90;;;;;;5139016;27;20311;-74
2022/12/21 01:45:18;;;;;;;42.50;24.43;;;6.50;99.90;;;;;;5138750;27;20208;-74
2022/12/21 01:47:55;;;;;;;44.93;25.50;;;6.50;99.90;;;;;;5069470;28;20196;-73
2022/12/21 01:50:35;;;;;;;41.50;24.20;;;6.50;99.90;;;;;;5069290;28;20196;-73
2022/12/21 01:53:10;;;;;;;41.87;24.03;;;6.50;99.90;;;;;;5138484;27;20222;-73
2022/12/21 01:55:39;;;;;;;42.37;24.67;;;6.50;99.90;;;;;;5138491;27;20196;-73
2022/12/21 01:58:10;;;;;;;44.77;24.87;;;6.50;99.90;;;;;;5138713;27;20250;-73
2022/12/21 02:00:40;;;;;;;47.23;25.70;;;6.50;99.90;;;;;;5138448;27;20205;-73
2022/12/21 02:03:14;;;;;;;45.60;26.13;;;6.50;99.90;;;;;;5068951;28;20196;-73
2022/12/21 02:05:51;;;;;;;46.50;26.33;;;6.50;99.90;;;;;;5069052;28;20197;-73
2022/12/21 02:08:21;;;;;;;42.80;25.13;;;6.40;99.90;;;;;;5138355;27;20204;-73
2022/12/21 02:10:53;;;;;;;45.67;25.63;;;6.50;99.90;;;;;;5138425;27;20713;-73
2022/12/21 02:13:26;;;;;;;41.70;25.40;;;6.40;99.90;;;;;;5091866;27;20552;-72
2022/12/21 02:16:16;;;;;;;44.80;25.47;;;6.50;99.90;;;;;;5076614;27;20212;-73
2022/12/21 02:19:26;;;;;;;44.70;26.10;;;6.40;99.90;;;;;;5068728;28;20709;-73
2022/12/21 02:21:59;;;;;;;41.00;25.07;;;6.40;99.90;;;;;;5110025;28;20231;-74
2022/12/21 02:24:45;;;;;;;46.67;24.33;;;6.50;99.90;;;;;;5093496;28;20273;-73
2022/12/21 02:27:49;;;;;;;41.47;24.20;;;6.30;99.90;;;;;;5110174;28;20204;-74
2022/12/21 02:30:19;;;;;;;41.47;22.20;;;6.30;99.90;;;;;;5110042;28;20199;-73
2022/12/21 02:33:03;;;;;;;43.70;25.00;;;6.30;99.90;;;;;;5092927;28;20268;-73
2022/12/21 02:35:42;;;;;;;43.87;24.27;;;6.40;99.90;;;;;;5092995;28;20207;-73
2022/12/21 02:38:24;;;;;;;42.93;23.43;;;6.30;99.90;;;;;;5109986;28;20761;-74
2022/12/21 02:41:01;;;;;;;50.73;25.50;;;6.30;99.90;;;;;;5092752;28;20201;-74
2022/12/21 02:46:33;;;;;;;43.20;26.03;;;6.40;99.90;;;;;;5097039;28;20203;-74
2022/12/21 02:49:06;;;;;;;40.13;24.03;;;6.40;99.90;;;;;;5097257;28;20205;-74
2022/12/21 02:51:39;;;;;;;41.30;25.03;;;6.40;99.90;;;;;;5097027;28;20209;-73
2022/12/21 02:54:11;;;;;;;42.73;23.00;;;6.50;99.90;;;;;;5096934;28;20200;-73
2022/12/21 02:56:42;;;;;;;40.03;22.63;;;6.50;99.90;;;;;;5096900;28;20202;-73
2022/12/21 02:59:14;;;;;;;39.07;23.57;;;6.50;99.90;;;;;;5110610;27;20752;-73
2022/12/21 03:01:59;;;;;;;42.67;23.17;;;6.50;99.90;;;;;;5141551;27;20354;-74
2022/12/21 03:04:43;;;;;;;42.50;23.37;;;6.50;99.90;;;;;;5141887;27;20201;-73
2022/12/21 03:07:32;;;;;;;38.77;23.60;;;6.50;99.90;;;;;;5071832;28;20248;-73
2022/12/21 03:10:12;;;;;;;36.47;21.77;;;6.50;99.90;;;;;;5141775;27;20665;-74
2022/12/21 03:12:52;;;;;;;34.87;21.30;;;6.40;99.90;;;;;;5141529;27;20206;-74
2022/12/21 03:15:31;;;;;;;37.07;22.13;;;6.40;99.90;;;;;;5141863;27;20252;-73
2022/12/21 03:18:08;;;;;;;41.10;22.07;;;6.40;99.90;;;;;;5141738;27;20214;-73
2022/12/21 03:20:48;;;;;;;35.40;20.60;;;6.50;99.90;;;;;;5141553;27;20240;-74
2022/12/21 03:23:24;;;;;;;40.10;21.67;;;6.40;99.90;;;;;;5071619;28;20226;-73
2022/12/21 03:25:59;;;;;;;38.17;21.57;;;6.40;99.90;;;;;;5071576;28;20192;-73
2022/12/21 03:28:31;;;;;;;31.37;19.43;;;6.40;99.90;;;;;;5071771;28;20549;-73
2022/12/21 03:31:04;;;;;;;33.33;19.50;;;6.40;99.90;;;;;;5071659;28;20240;-74
2022/12/21 03:33:39;;;;;;;29.03;17.93;;;6.40;99.90;;;;;;5071284;28;20654;-73
2022/12/21 03:36:15;;;;;;;32.43;19.30;;;6.40;99.90;;;;;;5071584;28;20199;-73
2022/12/21 03:38:48;;;;;;;33.37;19.03;;;6.40;99.90;;;;;;5071382;28;20596;-73
2022/12/21 03:41:23;;;;;;;33.90;19.73;;;6.40;99.90;;;;;;5071284;27;20209;-73
2022/12/21 03:43:56;;;;;;;33.40;20.07;;;6.50;99.90;;;;;;5106687;27;20553;-73
2022/12/21 03:46:29;;;;;;;35.10;21.23;;;6.40;99.90;;;;;;5071318;28;20198;-73
2022/12/21 03:49:01;;;;;;;33.17;20.20;;;6.50;99.90;;;;;;5141167;27;20205;-74
2022/12/21 03:51:40;;;;;;;35.80;20.13;;;6.50;99.90;;;;;;5071321;28;20197;-73
2022/12/21 03:54:15;;;;;;;33.70;21.23;;;6.50;99.90;;;;;;5070763;28;20249;-74
2022/12/21 03:56:44;;;;;;;35.00;21.50;;;6.50;99.90;;;;;;5070393;28;20195;-74
2022/12/21 03:59:15;;;;;;;34.80;19.37;;;6.50;99.90;;;;;;5071057;28;20598;-74
2022/12/21 04:01:59;;;;;;;40.23;21.03;;;6.50;99.90;;;;;;5071150;28;20576;-74
2022/12/21 04:04:34;;;;;;;55.43;28.67;;;6.50;99.90;;;;;;5071024;28;20244;-74
2022/12/21 04:07:08;;;;;;;37.67;21.30;;;6.50;99.90;;;;;;5070805;28;20205;-73
2022/12/21 04:09:38;;;;;;;42.07;23.20;;;6.50;99.90;;;;;;5140492;27;20227;-74
2022/12/21 04:14:54;;;;;;;53.53;25.77;;;6.60;99.90;;;;;;5070622;27;20232;-74
2022/12/21 04:17:23;;;;;;;35.53;21.67;;;6.50;99.90;;;;;;5070729;28;20196;-74
2022/12/21 04:20:00;;;;;;;39.60;22.17;;;6.50;99.90;;;;;;5070746;28;20196;-73
2022/12/21 04:28:08;;;;;;;44.90;22.90;;;6.60;99.90;;;;;;5070629;28;20186;-73
2022/12/21 04:30:58;;;;;;;46.10;23.77;;;6.60;99.90;;;;;;5070456;28;20193;-73
2022/12/21 04:33:28;;;;;;;38.87;22.17;;;6.60;99.90;;;;;;5070517;28;20209;-73
2022/12/21 04:38:46;;;;;;;46.07;23.97;;;6.70;99.90;;;;;;5070481;28;20754;-73
2022/12/21 04:41:15;;;;;;;41.97;22.03;;;6.70;99.90;;;;;;5070348;28;20617;-74
2022/12/21 04:43:44;;;;;;;45.47;25.20;;;6.60;99.90;;;;;;5105481;27;20570;-73
2022/12/21 04:46:15;;;;;;;43.53;23.00;;;6.60;99.90;;;;;;5070351;28;20245;-73
2022/12/21 04:48:46;;;;;;;46.17;23.00;;;6.60;99.90;;;;;;5139698;27;20216;-72
2022/12/21 04:51:17;;;;;;;44.57;24.03;;;6.60;99.90;;;;;;5139779;27;20637;-74
2022/12/21 04:53:48;;;;;;;42.33;24.10;;;6.60;99.90;;;;;;5070391;27;20708;-74
2022/12/21 04:56:17;;;;;;;45.33;23.57;;;6.50;99.90;;;;;;5069770;28;20197;-73
2022/12/21 04:58:46;;;;;;;44.13;23.07;;;6.50;99.90;;;;;;5069326;28;20197;-72
2022/12/21 05:01:16;;;;;;;49.23;24.13;;;6.40;99.90;;;;;;5069244;28;20216;-73
2022/12/21 05:03:46;;;;;;;42.80;22.87;;;6.40;99.90;;;;;;5068893;28;20713;-73
2022/12/21 05:06:17;;;;;;;45.17;22.90;;;6.50;99.90;;;;;;5069099;28;20683;-72
2022/12/21 05:08:47;;;;;;;44.10;24.07;;;6.50;99.90;;;;;;5069508;28;20666;-69
2022/12/21 05:11:19;;;;;;;45.60;23.07;;;6.50;99.90;;;;;;5090743;28;20692;-72
2022/12/21 05:13:48;;;;;;;46.27;22.93;;;6.60;99.90;;;;;;5090543;28;20238;-72
2022/12/21 05:16:19;;;;;;;44.57;23.53;;;6.60;99.90;;;;;;5090789;28;20195;-72
2022/12/21 05:18:49;;;;;;;50.87;25.57;;;6.50;99.90;;;;;;5090568;28;20202;-72
2022/12/21 05:21:19;;;;;;;48.73;24.77;;;6.50;99.90;;;;;;5090884;28;20218;-73
2022/12/21 05:23:50;;;;;;;46.13;24.00;;;6.40;99.90;;;;;;5090637;28;20234;-72
2022/12/21 05:26:19;;;;;;;51.23;26.57;;;6.40;99.90;;;;;;5090706;28;20574;-73
2022/12/21 05:28:48;;;;;;;51.13;25.60;;;6.50;99.90;;;;;;5090758;28;20187;-73
2022/12/21 05:31:18;;;;;;;49.13;24.70;;;6.50;99.90;;;;;;5090574;28;20207;-73
2022/12/21 05:33:48;;;;;;;46.87;25.00;;;6.50;99.90;;;;;;5090694;28;20200;-73
2022/12/21 05:36:18;;;;;;;52.33;25.13;;;6.50;99.90;;;;;;5077198;28;20229;-73
2022/12/21 05:38:47;;;;;;;49.37;25.57;;;6.50;99.90;;;;;;5069518;28;20667;-73
2022/12/21 05:41:17;;;;;;;51.67;26.07;;;6.50;99.90;;;;;;5069408;28;20699;-73
2022/12/21 05:43:46;;;;;;;55.23;27.30;;;6.50;99.90;;;;;;5069382;28;20219;-73
2022/12/21 05:46:15;;;;;;;48.83;25.80;;;6.50;99.90;;;;;;5069319;28;20203;-72
2022/12/21 05:48:54;;;;;;;53.17;26.57;;;6.50;99.90;;;;;;5069357;28;20233;-72
2022/12/21 05:51:23;;;;;;;53.33;25.87;;;6.50;99.90;;;;;;5069189;28;20201;-72
2022/12/21 05:53:55;;;;;;;56.10;28.03;;;6.50;99.90;;;;;;5069335;28;20560;-73
2022/12/21 05:56:25;;;;;;;59.87;27.23;;;6.50;99.90;;;;;;5069076;28;20191;-73
2022/12/21 05:58:54;;;;;;;54.03;26.73;;;6.60;99.90;;;;;;5069360;27;20197;-72
2022/12/21 06:01:23;;;;;;;58.60;28.37;;;6.60;99.90;;;;;;5068981;28;20690;-73
2022/12/21 06:03:52;;;;;;;66.80;28.90;;;6.50;99.90;;;;;;5068983;28;20239;-73
2022/12/21 06:06:21;;;;;;;63.17;27.80;;;6.50;99.90;;;;;;5069021;28;20192;-73
2022/12/21 06:08:50;;;;;;;61.10;28.77;;;6.50;99.90;;;;;;5068980;27;20714;-72
2022/12/21 06:11:21;;;;;;;67.37;30.37;;;6.50;99.90;;;;;;5068950;28;20195;-72
2022/12/21 06:13:53;;;;;;;62.23;29.93;;;6.50;99.90;;;;;;5068856;27;20320;-73
2022/12/21 06:16:25;;;;;;;65.60;28.87;;;6.50;99.90;;;;;;5138210;27;20205;-73
2022/12/21 06:18:55;;;;;;;64.73;28.90;;;6.60;99.90;;;;;;5137317;27;20252;-73
2022/12/21 06:21:24;;;;;;;70.50;30.73;;;6.60;99.90;;;;;;5138089;27;20228;-73
2022/12/21 06:23:54;;;;;;;63.90;30.40;;;6.60;99.90;;;;;;5068593;28;20304;-73
2022/12/21 06:26:22;;;;;;;69.30;29.03;;;6.60;99.90;;;;;;5068872;27;20250;-73
2022/12/21 06:28:54;;;;;;;61.20;28.30;;;6.60;99.90;;;;;;5068662;28;20612;-72
2022/12/21 06:31:24;;;;;;;63.60;28.97;;;6.60;99.90;;;;;;5138199;27;20262;-73
2022/12/21 06:33:54;;;;;;;58.83;28.17;;;6.60;99.90;;;;;;5068461;28;20199;-72
2022/12/21 06:36:23;;;;;;;66.43;28.50;;;6.60;99.90;;;;;;5068727;27;20219;-72
2022/12/21 06:38:52;;;;;;;61.63;28.57;;;6.60;99.90;;;;;;5068548;28;20689;-73
2022/12/21 06:41:21;;;;;;;50.33;26.63;;;6.60;99.90;;;;;;5068617;28;20562;-72
2022/12/21 06:43:50;;;;;;;59.13;27.57;;;6.70;99.90;;;;;;5103259;27;20681;-72
2022/12/21 06:46:20;;;;;;;59.00;26.73;;;6.70;99.90;;;;;;5068376;28;20606;-73
2022/12/21 06:48:50;;;;;;;54.83;27.77;;;6.70;99.90;;;;;;5068361;28;20195;-72
2022/12/21 06:51:20;;;;;;;60.17;29.37;;;6.60;99.90;;;;;;5068337;28;20197;-73
2022/12/21 06:53:51;;;;;;;59.00;27.23;;;6.60;99.90;;;;;;5068494;28;20193;-73
2022/12/21 06:56:23;;;;;;;53.60;26.43;;;6.60;99.90;;;;;;5137857;27;20257;-74
2022/12/21 06:58:54;;;;;;;47.17;25.43;;;6.60;99.90;;;;;;5068363;28;20195;-73
2022/12/21 07:01:25;;;;;;;50.03;26.47;;;6.60;99.90;;;;;;5068315;27;20214;-74
2022/12/21 07:03:55;;;;;;;52.40;26.00;;;6.50;99.90;;;;;;5068042;28;20580;-73
2022/12/21 07:06:25;;;;;;;54.77;26.57;;;6.50;99.90;;;;;;5068268;28;20232;-74
2022/12/21 07:08:55;;;;;;;62.10;27.13;;;6.50;99.90;;;;;;5068205;28;20258;-73
2022/12/21 07:11:26;;;;;;;57.03;26.20;;;6.40;99.90;;;;;;5137567;27;20241;-73
2022/12/21 07:13:55;;;;;;;51.67;25.57;;;6.50;99.90;;;;;;5129470;28;20267;-73
2022/12/21 07:16:26;;;;;;;50.73;25.10;;;6.50;99.90;;;;;;5129894;28;20267;-73
2022/12/21 07:18:55;;;;;;;53.53;27.23;;;6.60;99.90;;;;;;5129880;28;20201;-72
2022/12/21 07:21:24;;;;;;;47.57;25.67;;;6.60;99.90;;;;;;5130166;28;20751;-72
2022/12/21 07:23:53;;;;;;;55.60;26.20;;;6.50;99.90;;;;;;5129951;28;20225;-73
2022/12/21 07:26:23;;;;;;;55.33;27.33;;;6.50;99.90;;;;;;5112895;28;20201;-73
2022/12/21 07:28:54;;;;;;;55.47;27.43;;;6.50;99.90;;;;;;5129990;27;20197;-73
2022/12/21 07:31:27;;;;;;;55.23;27.67;;;6.60;99.90;;;;;;5121905;27;20740;-73
2022/12/21 07:33:56;;;;;;;55.03;26.63;;;6.60;99.90;;;;;;5071379;27;20662;-72
2022/12/21 07:36:25;;;;;;;52.33;26.70;;;6.60;99.90;;;;;;5071429;28;20254;-73
2022/12/21 07:38:54;;;;;;;57.03;26.60;;;6.60;99.90;;;;;;5071413;28;20207;-73
2022/12/21 07:41:23;;;;;;;49.97;26.17;;;6.60;99.90;;;;;;5141113;27;20261;-72
2022/12/21 07:43:52;;;;;;;43.10;23.37;;;6.60;99.90;;;;;;5106598;27;20683;-74
2022/12/21 07:46:45;;;;;;;43.80;23.47;;;6.60;99.90;;;;;;5080151;27;20257;-73
2022/12/21 07:49:16;;;;;;;43.33;22.90;;;6.60;99.90;;;;;;5140834;27;20672;-73
2022/12/21 07:51:45;;;;;;;43.90;23.60;;;6.60;99.90;;;;;;5071099;28;20206;-72
2022/12/21 07:54:14;;;;;;;45.83;23.27;;;6.50;99.90;;;;;;5071311;28;20530;-74
2022/12/21 07:56:43;;;;;;;49.03;26.30;;;6.50;99.90;;;;;;5071209;28;20726;-73
2022/12/21 07:59:12;;;;;;;43.30;25.03;;;6.40;99.90;;;;;;5071116;27;20294;-73
2022/12/21 08:01:41;;;;;;;44.37;24.10;;;6.40;99.90;;;;;;5071223;28;20222;-73
2022/12/21 08:04:12;;;;;;;41.77;22.20;;;6.40;99.90;;;;;;5070728;28;20223;-74
2022/12/21 08:06:41;;;;;;;41.87;21.97;;;6.40;99.90;;;;;;5070858;27;20309;-74
2022/12/21 08:09:13;;;;;;;39.33;21.83;;;6.40;99.90;;;;;;5070861;28;20202;-73
2022/12/21 08:11:42;;;;;;;38.83;22.17;;;6.40;99.90;;;;;;5070800;28;20268;-74
2022/12/21 08:14:11;;;;;;;38.63;20.97;;;6.40;99.90;;;;;;5105962;27;20224;-74
2022/12/21 08:16:41;;;;;;;31.90;20.17;;;6.40;99.90;;;;;;5070696;28;20261;-73
2022/12/21 08:19:11;;;;;;;36.83;20.63;;;6.30;99.90;;;;;;5070790;27;20339;-75
2022/12/21 08:21:41;;;;;;;36.90;21.40;;;6.40;99.90;;;;;;5071303;27;20212;-74
2022/12/21 08:24:10;;;;;;;38.37;21.43;;;6.50;99.90;;;;;;5070629;28;20237;-75
2022/12/21 08:26:39;;;;;;;34.67;20.67;;;6.50;99.90;;;;;;5070503;28;20275;-74
2022/12/21 08:29:13;;;;;;;36.57;20.20;;;6.50;99.90;;;;;;5140508;27;20606;-74
2022/12/21 08:31:42;;;;;;;35.83;20.47;;;6.50;99.90;;;;;;5070383;27;20259;-74
2022/12/21 08:34:12;;;;;;;37.10;20.17;;;6.50;99.90;;;;;;5070517;28;20211;-74
2022/12/21 08:36:41;;;;;;;35.33;19.80;;;6.50;99.90;;;;;;5070629;28;20207;-74
2022/12/21 08:39:10;;;;;;;37.57;21.93;;;6.50;99.90;;;;;;5070407;28;20196;-74
2022/12/21 08:41:40;;;;;;;36.43;20.33;;;6.50;99.90;;;;;;5069817;28;20241;-74
2022/12/21 08:44:09;;;;;;;33.83;20.50;;;6.50;99.90;;;;;;5105505;27;20197;-73
2022/12/21 08:46:38;;;;;;;33.87;20.83;;;6.50;99.90;;;;;;5070223;28;20200;-74
2022/12/21 08:49:06;;;;;;;36.63;20.27;;;6.50;99.90;;;;;;5139664;27;20647;-74
2022/12/21 08:51:38;;;;;;;39.17;21.67;;;6.50;99.90;;;;;;5070320;28;20197;-73
2022/12/21 08:54:08;;;;;;;36.47;21.30;;;6.50;99.90;;;;;;5070373;27;20722;-73
2022/12/21 08:56:37;;;;;;;35.43;21.17;;;6.40;99.90;;;;;;5070120;28;20220;-73
2022/12/21 08:59:09;;;;;;;33.63;20.10;;;6.40;99.90;;;;;;5069969;28;20211;-74
2022/12/21 09:01:38;;;;;;;37.57;21.43;;;6.40;99.90;;;;;;5070044;28;20197;-73
2022/12/21 09:04:07;;;;;;;33.27;20.20;;;6.40;99.90;;;;;;5069864;28;20199;-74
2022/12/21 09:06:37;;;;;;;35.97;22.20;;;6.40;99.90;;;;;;5069886;28;20196;-74
2022/12/21 09:09:08;;;;;;;35.60;20.33;;;6.40;99.90;;;;;;5069878;28;20214;-73
2022/12/21 09:11:37;;;;;;;36.13;20.53;;;6.40;99.90;;;;;;5069752;28;20258;-74
2022/12/21 09:14:17;;;;;;;36.97;21.37;;;6.40;99.90;;;;;;5104815;27;20265;-75
2022/12/21 09:16:46;;;;;;;35.53;20.77;;;6.50;99.90;;;;;;5069799;28;20684;-74
2022/12/21 09:19:15;;;;;;;34.83;20.47;;;6.50;99.90;;;;;;5069770;28;20204;-73
2022/12/21 09:21:46;;;;;;;36.80;21.17;;;6.50;99.90;;;;;;4991264;28;20223;-74
2022/12/21 09:24:15;;;;;;;36.93;21.10;;;6.50;99.90;;;;;;5007780;28;20207;-73
2022/12/21 09:26:47;;;;;;;34.13;18.90;;;6.50;99.90;;;;;;5007928;28;20230;-73
2022/12/21 09:29:16;;;;;;;34.50;20.30;;;6.40;99.90;;;;;;5007858;28;20209;-73
2022/12/21 09:31:45;;;;;;;38.70;19.93;;;6.40;99.90;;;;;;5007953;28;20288;-74
2022/12/21 09:34:14;;;;;;;33.70;20.23;;;6.40;99.90;;;;;;5007738;28;20262;-73
2022/12/21 09:36:45;;;;;;;35.53;21.50;;;6.40;99.90;;;;;;5007677;28;20205;-73
2022/12/21 09:39:33;;;;;;;39.33;22.17;;;6.40;99.90;;;;;;5029963;27;20296;-73
2022/12/21 09:42:13;;;;;;;35.90;20.30;;;6.40;99.90;;;;;;5138565;27;20227;-73
2022/12/21 09:45:03;;;;;;;37.67;20.97;;;6.40;99.90;;;;;;5069403;27;20200;-73
2022/12/21 09:47:40;;;;;;;38.07;21.50;;;6.40;99.90;;;;;;5069656;27;20240;-73
2022/12/21 09:50:16;;;;;;;33.63;21.37;;;6.40;99.90;;;;;;5069169;28;20237;-74
2022/12/21 09:52:52;;;;;;;34.97;21.80;;;6.50;99.90;;;;;;5137891;27;20697;-73
2022/12/21 09:55:25;;;;;;;30.37;19.63;;;6.50;99.90;;;;;;5138620;27;20637;-73
2022/12/21 09:57:59;;;;;;;32.33;20.77;;;6.60;99.90;;;;;;5069360;27;20228;-73
2022/12/21 10:00:32;;;;;;;30.57;18.90;;;6.50;99.90;;;;;;5069198;28;20307;-73
2022/12/21 10:03:30;;;;;;;29.30;17.87;;;6.60;99.90;;;;;;5069334;27;20211;-73
2022/12/21 10:06:15;;;;;;;57.77;31.87;;;6.50;99.90;;;;;;5089846;28;20268;-72
2022/12/21 10:09:28;;;;;;;94.33;54.00;;;6.60;99.90;;;;;;5089842;28;20248;-75
2022/12/21 10:12:09;;;;;;;83.87;44.40;;;6.70;99.90;;;;;;5049604;28;20292;-72
2022/12/21 10:14:51;;;;;;;50.90;30.33;;;6.80;99.90;;;;;;5049257;28;20287;-73
2022/12/21 10:17:39;;;;;;;36.77;23.13;;;6.70;99.90;;;;;;5049543;28;20228;-74
2022/12/21 10:20:21;;;;;;;40.50;24.83;;;6.70;99.90;;;;;;5049543;28;20205;-73
2022/12/21 10:22:55;;;;;;;40.33;24.83;;;6.70;99.90;;;;;;5049475;28;20201;-73
2022/12/21 10:25:39;;;;;;;39.30;22.33;;;6.70;99.90;;;;;;5049415;28;20228;-72
2022/12/21 10:28:22;;;;;;;32.33;21.13;;;6.80;99.90;;;;;;5049553;28;20205;-72
2022/12/21 10:30:58;;;;;;;29.73;19.80;;;6.90;99.90;;;;;;5049333;28;20659;-73
2022/12/21 10:33:29;;;;;;;33.80;20.77;;;6.90;99.90;;;;;;5049329;28;20197;-73
2022/12/21 10:36:03;;;;;;;34.93;21.23;;;7.00;99.90;;;;;;5049117;28;20213;-73
2022/12/21 10:38:34;;;;;;;34.97;20.87;;;7.00;99.90;;;;;;5049275;28;20666;-73
2022/12/21 10:41:10;;;;;;;36.00;21.47;;;6.90;99.90;;;;;;5049442;28;20747;-74
2022/12/21 10:43:41;;;;;;;34.33;20.60;;;6.90;99.90;;;;;;5017424;28;20636;-74
2022/12/21 10:46:10;;;;;;;34.93;21.37;;;7.00;99.90;;;;;;5026246;28;20223;-73
2022/12/21 10:48:39;;;;;;;30.87;20.77;;;7.00;99.90;;;;;;5048351;28;20205;-73
2022/12/21 10:51:17;;;;;;;32.63;20.47;;;6.90;99.90;;;;;;5138092;27;20203;-74
2022/12/21 10:53:59;;;;;;;37.30;22.17;;;7.00;99.90;;;;;;5137901;27;20228;-73
2022/12/21 10:56:31;;;;;;;36.47;21.90;;;7.00;99.90;;;;;;5068370;28;20202;-73
2022/12/21 10:59:08;;;;;;;31.73;20.50;;;6.90;99.90;;;;;;5068520;28;20193;-73
2022/12/21 11:01:37;;;;;;;34.57;20.10;;;6.90;99.90;;;;;;5068166;28;20311;-73
2022/12/21 11:04:16;;;;;;;36.33;20.80;;;6.90;99.90;;;;;;5068652;28;20189;-73
2022/12/21 11:06:57;;;;;;;35.07;21.60;;;6.90;99.90;;;;;;5071793;28;20216;-72
2022/12/21 11:09:43;;;;;;;37.17;20.97;;;6.90;99.90;;;;;;5071846;28;20548;-73
2022/12/21 11:12:21;;;;;;;39.53;22.60;;;6.90;99.90;;;;;;5071762;28;20727;-73
2022/12/21 11:14:52;;;;;;;36.30;21.63;;;6.90;99.90;;;;;;5071605;27;20320;-73
2022/12/21 11:17:24;;;;;;;31.33;19.60;;;6.90;99.90;;;;;;5071652;28;20201;-72
2022/12/21 11:20:00;;;;;;;35.57;21.10;;;6.90;99.90;;;;;;5071401;28;20272;-73
2022/12/21 11:22:31;;;;;;;35.87;19.97;;;6.90;99.90;;;;;;5071539;28;20276;-73
2022/12/21 11:25:23;;;;;;;38.33;20.77;;;6.90;99.90;;;;;;5071477;27;20190;-73
2022/12/21 11:28:00;;;;;;;33.07;19.57;;;6.90;99.90;;;;;;5071454;28;20208;-73
2022/12/21 11:30:34;;;;;;;35.20;20.93;;;6.90;99.90;;;;;;5071536;28;20198;-73
2022/12/21 11:33:04;;;;;;;36.43;19.53;;;6.90;99.90;;;;;;5071480;28;20220;-71
2022/12/21 11:35:34;;;;;;;35.20;20.23;;;6.90;99.90;;;;;;5071335;28;20193;-73
2022/12/21 11:38:09;;;;;;;36.67;20.63;;;6.90;99.90;;;;;;5071327;28;20609;-72
2022/12/21 11:40:41;;;;;;;34.57;19.87;;;6.90;99.90;;;;;;5071849;28;20552;-73
2022/12/21 11:43:17;;;;;;;31.63;19.33;;;7.00;99.90;;;;;;5086304;27;20263;-72
2022/12/21 11:45:56;;;;;;;35.77;20.37;;;7.10;99.90;;;;;;5084694;27;20588;-72
2022/12/21 11:48:55;;;;;;;30.97;18.73;;;7.00;99.90;;;;;;5071311;28;20663;-72
2022/12/21 11:51:35;;;;;;;37.67;20.20;;;7.00;99.90;;;;;;5071087;28;20284;-74
2022/12/21 11:54:18;;;;;;;32.93;19.67;;;7.00;99.90;;;;;;5071432;28;20565;-73
2022/12/21 11:56:51;;;;;;;30.20;18.70;;;7.00;99.90;;;;;;5071141;28;20640;-74
2022/12/21 11:59:42;;;;;;;30.50;18.63;;;7.00;99.90;;;;;;5071200;27;20201;-74
2022/12/21 12:02:35;;;;;;;28.50;18.73;;;7.10;99.90;;;;;;5071150;28;20269;-74
2022/12/21 12:05:19;;;;;;;28.87;17.47;;;7.10;99.90;;;;;;5071121;28;20212;-74
2022/12/21 12:07:54;;;;;;;27.77;18.20;;;7.10;99.90;;;;;;5070812;28;20289;-75
2022/12/21 12:10:45;;;;;;;31.17;18.17;;;7.20;99.90;;;;;;5071026;27;20806;-73
2022/12/21 12:13:31;;;;;;;34.63;19.43;;;7.20;99.90;;;;;;5088019;27;20195;-73
2022/12/21 12:16:12;;;;;;;31.40;18.10;;;7.20;99.90;;;;;;5142845;27;20285;-74
2022/12/21 12:18:55;;;;;;;30.20;18.47;;;7.30;99.90;;;;;;5070560;27;20201;-74
2022/12/21 12:21:38;;;;;;;25.50;16.63;;;7.30;99.90;;;;;;5070980;28;20209;-74
2022/12/21 12:24:38;;;;;;;26.87;17.13;;;7.30;99.90;;;;;;5070842;27;20204;-75
2022/12/21 12:27:18;;;;;;;29.13;17.97;;;7.40;99.90;;;;;;5091737;28;20251;-74
2022/12/21 12:30:04;;;;;;;26.30;15.57;;;7.40;99.90;;;;;;5091809;28;20202;-74
2022/12/21 12:32:52;;;;;;;31.00;17.53;;;7.40;99.90;;;;;;5091779;28;20736;-75
2022/12/21 12:35:42;;;;;;;28.43;17.17;;;7.50;99.90;;;;;;5091488;28;20291;-75
2022/12/21 12:38:15;;;;;;;29.57;16.40;;;7.40;99.90;;;;;;5091516;28;20311;-75
2022/12/21 12:40:55;;;;;;;30.67;17.00;;;7.40;99.90;;;;;;5091606;28;20200;-75
2022/12/21 12:43:39;;;;;;;29.20;17.37;;;7.40;99.90;;;;;;5085867;28;20205;-74
2022/12/21 12:46:17;;;;;;;38.10;22.57;;;7.40;99.90;;;;;;5091382;28;20249;-74
2022/12/21 12:48:59;;;;;;;28.10;18.20;;;7.40;99.90;;;;;;5091622;28;20249;-72
2022/12/21 12:51:36;;;;;;;28.10;16.83;;;7.40;99.90;;;;;;5091240;28;20665;-75
2022/12/21 12:54:11;;;;;;;28.90;17.57;;;7.40;99.90;;;;;;5091500;28;20208;-73
2022/12/21 12:56:52;;;;;;;28.47;17.67;;;7.40;99.90;;;;;;5074208;28;20204;-74
2022/12/21 12:59:26;;;;;;;28.67;17.83;;;7.30;99.90;;;;;;5091243;28;20200;-75
2022/12/21 13:02:01;;;;;;;36.40;24.03;;;7.40;99.90;;;;;;5091284;28;20547;-75
2022/12/21 13:05:00;;;;;;;43.43;24.63;;;7.40;99.90;;;;;;5072812;28;20201;-77
2022/12/21 13:07:38;;;;;;;30.80;18.70;;;7.50;99.90;;;;;;5069808;28;20256;-74
2022/12/21 13:10:17;;;;;;;27.00;17.10;;;7.40;99.90;;;;;;5069854;28;20290;-74
2022/12/21 13:12:54;;;;;;;31.07;18.70;;;7.40;99.90;;;;;;5070948;27;20197;-75
2022/12/21 13:15:26;;;;;;;28.33;18.33;;;7.40;99.90;;;;;;5096535;27;20600;-75
2022/12/21 13:18:01;;;;;;;31.90;19.27;;;7.30;99.90;;;;;;5069842;28;20299;-75
2022/12/21 13:20:33;;;;;;;31.23;20.10;;;7.20;99.90;;;;;;5069634;28;20276;-75
2022/12/21 13:23:05;;;;;;;33.60;20.23;;;7.20;99.90;;;;;;5069805;28;20574;-75